Havre City County Airport
KHVR : now visible

Airfield :











YOU CAN JOIN US ON...

 
LOGIN :

Register | Disclaimer

   EN    FR    IT 

 









Legend :    VFR   Marginal VFR   IFR   Intensive IFR   Very Intensive IFR
Visi :
Ceiling :
>= 8 km
>= 3000ft
5 to 8 km
1000 to 3000 ft
1500m to 5 km
500 to 1000 ft
800 to 1500m
200 to 500 ft
< 800m
< 200 ft
Symbols :   Thunderstorms  Fog  Heavy snow  Heavy precipitations  Wind > 20 kt






- Airport Elevation : 2591 ft


KHVR - Havre City County

CURRENT METAR :
  • 280753Z AUTO 27006KT 10SM CLR 00/M04 A3009 RMK AO2 SLP205 T00001039

EXPIRED METARs :
  • 280653Z AUTO 22015KT 10SM CLR 01/M04 A3009 RMK AO2 SLP205 T00111039 401111028
  • 280553Z AUTO 23010KT 10SM CLR 01/M04 A3011 RMK AO2 SLP216 T00061039 10094 21006 50003

TAF KHVR
Valid from the 28 at 06:00 until the 29 at 06:00 UTC


280539Z 2806/2906 24008KT P6SM FEW250 WS020/30030KT
FM281700 26012KT P6SM SKC
FM290000 23008KT P6SM SCT150 BKN250



MET'MAP, your aeronautical weather chart ! - Copyright ORBIFLY December 2007 - Disclaimer

ORBIFLY MET'MAP TEAM :

Programming & Development : Alexandra Zaïnal
Concept & original design : Baudouin d'Aumeries
Assistance for programming : Marc-Olivier Méhu
Technical & hardware support : Manuel Goepfert

Contact : metmap@orbifly.com




SOURCES & CREDITS :

   NOAA       Earth
Advisory